Rechercher aéroport 
image banner adimage banner ad
image banner ad

EKKV - Klaksvik

Situé à Klaksvik, Faroe Islands

ICAO - EKKV, IATA -

Données fournies par Airmate  

Information générale

Coordonnées: N62°13'4" W6°34'35"
Élévation : 263 feet MSL.
Variation magnétique : -8.2° East
Voir autres Aéroports à (unassigned)

Données opérationnelles

Accessible au public
Heure actuelle UTC:
Heure actuelle locale:
Météo à : EKVG - Vagar ( 40 km )
METAR: EKVG 211820Z AUTO 01031G41KT 9999 -RA BKN031/// 02/M02 Q0982
TAF: TAF EKVG 211405Z 2115/2121 02035G45KT 7000 -SHRASN SCT012 BKN020 TEMPO 2115/2121 2000 SHSNRA BKN008CB
Voir NOTAMs / SUP AIP / TFR affectant cet aéroport [VIEW]
Fréquences de communication: [VIEW]

Pistes:

Coordonnées de l'aéroport

Adresse: Klaksvik Faroe Islands

Vue satellite de EKKV